sensor_id;sensor_type;location;lat;lon;timestamp;pressure;altitude;pressure_sealevel;temperature;humidity
12146;BME280;6136;47.032;15.398;2023-02-13T00:01:07;99605.53;;;-1.61;100.00
12146;BME280;6136;47.032;15.398;2023-02-13T00:03:35;99608.03;;;-1.65;100.00
12146;BME280;6136;47.032;15.398;2023-02-13T00:06:04;99608.03;;;-1.65;100.00
12146;BME280;6136;47.032;15.398;2023-02-13T00:08:32;99613.97;;;-1.72;100.00
12146;BME280;6136;47.032;15.398;2023-02-13T00:11:00;99600.94;;;-1.74;100.00
12146;BME280;6136;47.032;15.398;2023-02-13T00:13:28;99590.28;;;-1.87;100.00
12146;BME280;6136;47.032;15.398;2023-02-13T00:15:58;99600.78;;;-1.81;100.00
12146;BME280;6136;47.032;15.398;2023-02-13T00:18:28;99616.38;;;-1.81;100.00
12146;BME280;6136;47.032;15.398;2023-02-13T00:20:58;99613.78;;;-1.81;100.00
12146;BME280;6136;47.032;15.398;2023-02-13T00:23:29;99613.75;;;-1.83;100.00
12146;BME280;6136;47.032;15.398;2023-02-13T00:25:58;99609.41;;;-1.84;100.00
12146;BME280;6136;47.032;15.398;2023-02-13T00:28:26;99611.16;;;-1.83;100.00
12146;BME280;6136;47.032;15.398;2023-02-13T00:31:02;99606.88;;;-1.81;100.00
12146;BME280;6136;47.032;15.398;2023-02-13T00:33:32;99608.47;;;-1.87;100.00
12146;BME280;6136;47.032;15.398;2023-02-13T00:36:05;99608.44;;;-1.89;100.00
12146;BME280;6136;47.032;15.398;2023-02-13T00:38:34;99609.34;;;-1.87;100.00
12146;BME280;6136;47.032;15.398;2023-02-13T00:41:02;99600.56;;;-1.93;100.00
12146;BME280;6136;47.032;15.398;2023-02-13T00:43:30;99604.78;;;-1.99;100.00
12146;BME280;6136;47.032;15.398;2023-02-13T00:45:59;99611.81;;;-1.94;100.00
12146;BME280;6136;47.032;15.398;2023-02-13T00:48:29;99615.28;;;-1.92;100.00
12146;BME280;6136;47.032;15.398;2023-02-13T00:50:59;99624.84;;;-1.91;100.00
12146;BME280;6136;47.032;15.398;2023-02-13T00:53:29;99613.41;;;-2.00;100.00
12146;BME280;6136;47.032;15.398;2023-02-13T00:55:57;99609.13;;;-1.98;100.00
12146;BME280;6136;47.032;15.398;2023-02-13T00:58:26;99615.88;;;-2.06;100.00
12146;BME280;6136;47.032;15.398;2023-02-13T01:00:54;99616.72;;;-2.07;100.00
12146;BME280;6136;47.032;15.398;2023-02-13T01:03:23;99610.78;;;-2.03;100.00
12146;BME280;6136;47.032;15.398;2023-02-13T01:05:52;99605.50;;;-2.06;100.00
12146;BME280;6136;47.032;15.398;2023-02-13T01:08:21;99602.00;;;-2.08;100.00
12146;BME280;6136;47.032;15.398;2023-02-13T01:10:49;99608.06;;;-2.07;100.00
12146;BME280;6136;47.032;15.398;2023-02-13T01:13:17;99624.41;;;-2.13;100.00
12146;BME280;6136;47.032;15.398;2023-02-13T01:15:46;99607.13;;;-2.11;100.00
12146;BME280;6136;47.032;15.398;2023-02-13T01:18:17;99605.25;;;-2.18;100.00
12146;BME280;6136;47.032;15.398;2023-02-13T01:20:54;99603.59;;;-2.14;100.00
12146;BME280;6136;47.032;15.398;2023-02-13T01:23:29;99607.66;;;-2.27;100.00
12146;BME280;6136;47.032;15.398;2023-02-13T01:25:57;99603.28;;;-2.28;100.00
12146;BME280;6136;47.032;15.398;2023-02-13T01:28:26;99601.59;;;-2.27;100.00
12146;BME280;6136;47.032;15.398;2023-02-13T01:30:55;99602.41;;;-2.28;100.00
12146;BME280;6136;47.032;15.398;2023-02-13T01:33:26;99604.13;;;-2.29;100.00
12146;BME280;6136;47.032;15.398;2023-02-13T01:35:54;99604.19;;;-2.27;100.00
12146;BME280;6136;47.032;15.398;2023-02-13T01:38:25;99607.59;;;-2.30;100.00
12146;BME280;6136;47.032;15.398;2023-02-13T01:40:53;99608.25;;;-2.40;100.00
12146;BME280;6136;47.032;15.398;2023-02-13T01:43:22;99604.84;;;-2.36;100.00
12146;BME280;6136;47.032;15.398;2023-02-13T01:45:55;99604.75;;;-2.41;100.00
12146;BME280;6136;47.032;15.398;2023-02-13T01:48:25;99596.00;;;-2.46;100.00
12146;BME280;6136;47.032;15.398;2023-02-13T01:51:02;99606.34;;;-2.47;100.00
12146;BME280;6136;47.032;15.398;2023-02-13T01:53:38;99604.44;;;-2.56;100.00
12146;BME280;6136;47.032;15.398;2023-02-13T01:56:10;99605.34;;;-2.54;100.00
12146;BME280;6136;47.032;15.398;2023-02-13T01:58:44;99603.69;;;-2.50;100.00
12146;BME280;6136;47.032;15.398;2023-02-13T02:01:13;99602.78;;;-2.52;100.00
12146;BME280;6136;47.032;15.398;2023-02-13T02:03:45;99601.09;;;-2.50;100.00
12146;BME280;6136;47.032;15.398;2023-02-13T02:06:20;99596.63;;;-2.56;100.00
12146;BME280;6136;47.032;15.398;2023-02-13T02:08:52;99591.38;;;-2.59;100.00
12146;BME280;6136;47.032;15.398;2023-02-13T02:11:27;99599.19;;;-2.57;100.00
12146;BME280;6136;47.032;15.398;2023-02-13T02:13:57;99594.78;;;-2.61;100.00
12146;BME280;6136;47.032;15.398;2023-02-13T02:16:32;99595.63;;;-2.62;100.00
12146;BME280;6136;47.032;15.398;2023-02-13T02:19:04;99590.41;;;-2.64;100.00
12146;BME280;6136;47.032;15.398;2023-02-13T02:21:50;99580.75;;;-2.69;100.00
12146;BME280;6136;47.032;15.398;2023-02-13T02:24:50;99595.50;;;-2.68;100.00
12146;BME280;6136;47.032;15.398;2023-02-13T02:30:41;99590.19;;;-2.73;100.00
12146;BME280;6136;47.032;15.398;2023-02-13T02:33:21;99596.34;;;-2.69;100.00
12146;BME280;6136;47.032;15.398;2023-02-13T02:36:10;99577.97;;;-2.79;100.00
12146;BME280;6136;47.032;15.398;2023-02-13T02:38:50;99597.31;;;-2.64;100.00
12146;BME280;6136;47.032;15.398;2023-02-13T02:41:32;99600.59;;;-2.71;100.00
12146;BME280;6136;47.032;15.398;2023-02-13T02:44:33;99596.19;;;-2.76;100.00
12146;BME280;6136;47.032;15.398;2023-02-13T02:47:08;99599.91;;;-2.64;100.00
12146;BME280;6136;47.032;15.398;2023-02-13T02:50:10;99591.97;;;-2.70;100.00
12146;BME280;6136;47.032;15.398;2023-02-13T02:52:45;99600.56;;;-2.75;100.00
12146;BME280;6136;47.032;15.398;2023-02-13T02:55:25;99598.63;;;-2.83;100.00
12146;BME280;6136;47.032;15.398;2023-02-13T02:58:04;99601.38;;;-2.76;100.00
12146;BME280;6136;47.032;15.398;2023-02-13T03:00:57;99592.66;;;-2.79;100.00
12146;BME280;6136;47.032;15.398;2023-02-13T03:03:45;99593.31;;;-2.88;100.00
12146;BME280;6136;47.032;15.398;2023-02-13T03:06:36;99598.56;;;-2.85;100.00
12146;BME280;6136;47.032;15.398;2023-02-13T03:09:10;99599.41;;;-2.86;100.00
12146;BME280;6136;47.032;15.398;2023-02-13T03:11:58;99600.34;;;-2.84;100.00
12146;BME280;6136;47.032;15.398;2023-02-13T03:14:43;99598.44;;;-2.91;100.00
12146;BME280;6136;47.032;15.398;2023-02-13T03:17:14;99594.91;;;-2.93;100.00
12146;BME280;6136;47.032;15.398;2023-02-13T03:20:14;99597.66;;;-2.87;100.00
12146;BME280;6136;47.032;15.398;2023-02-13T03:23:14;99595.91;;;-2.88;100.00
12146;BME280;6136;47.032;15.398;2023-02-13T03:26:00;99589.00;;;-2.87;100.00
12146;BME280;6136;47.032;15.398;2023-02-13T03:28:37;99586.31;;;-2.92;100.00
12146;BME280;6136;47.032;15.398;2023-02-13T03:31:33;99570.75;;;-2.92;100.00
12146;BME280;6136;47.032;15.398;2023-02-13T03:34:04;99579.22;;;-2.99;100.00
12146;BME280;6136;47.032;15.398;2023-02-13T03:36:41;99575.94;;;-2.92;100.00
12146;BME280;6136;47.032;15.398;2023-02-13T03:39:35;99575.88;;;-2.93;100.00
12146;BME280;6136;47.032;15.398;2023-02-13T03:42:11;99576.72;;;-2.94;100.00
12146;BME280;6136;47.032;15.398;2023-02-13T03:44:46;99567.00;;;-3.03;100.00
12146;BME280;6136;47.032;15.398;2023-02-13T03:47:37;99570.59;;;-2.98;100.00
12146;BME280;6136;47.032;15.398;2023-02-13T03:50:08;99568.91;;;-2.96;100.00
12146;BME280;6136;47.032;15.398;2023-02-13T03:52:42;99573.25;;;-2.95;100.00
12146;BME280;6136;47.032;15.398;2023-02-13T03:55:15;99570.56;;;-2.99;100.00
12146;BME280;6136;47.032;15.398;2023-02-13T03:58:04;99564.53;;;-2.98;100.00
12146;BME280;6136;47.032;15.398;2023-02-13T04:00:54;99569.69;;;-3.00;100.00
12146;BME280;6136;47.032;15.398;2023-02-13T04:03:28;99567.09;;;-3.00;100.00
12146;BME280;6136;47.032;15.398;2023-02-13T04:06:01;99576.66;;;-2.97;100.00
12146;BME280;6136;47.032;15.398;2023-02-13T04:08:31;99567.97;;;-2.99;100.00
12146;BME280;6136;47.032;15.398;2023-02-13T04:11:06;99575.72;;;-3.01;100.00
12146;BME280;6136;47.032;15.398;2023-02-13T04:13:41;99577.28;;;-3.07;100.00
12146;BME280;6136;47.032;15.398;2023-02-13T04:16:16;99573.91;;;-3.05;100.00
12146;BME280;6136;47.032;15.398;2023-02-13T04:18:45;99576.34;;;-3.09;100.00
12146;BME280;6136;47.032;15.398;2023-02-13T04:21:15;99573.91;;;-3.03;100.00
12146;BME280;6136;47.032;15.398;2023-02-13T04:23:43;99569.50;;;-3.07;100.00
12146;BME280;6136;47.032;15.398;2023-02-13T04:26:16;99565.84;;;-3.16;100.00
12146;BME280;6136;47.032;15.398;2023-02-13T04:28:44;99564.97;;;-3.16;100.00
12146;BME280;6136;47.032;15.398;2023-02-13T04:31:13;99568.28;;;-3.22;100.00
12146;BME280;6136;47.032;15.398;2023-02-13T04:33:41;99566.63;;;-3.18;100.00
12146;BME280;6136;47.032;15.398;2023-02-13T04:36:09;99551.59;;;-3.33;100.00
12146;BME280;6136;47.032;15.398;2023-02-13T04:38:37;99567.41;;;-3.22;100.00
12146;BME280;6136;47.032;15.398;2023-02-13T04:41:05;99568.22;;;-3.25;100.00
12146;BME280;6136;47.032;15.398;2023-02-13T04:43:35;99570.09;;;-3.19;100.00
12146;BME280;6136;47.032;15.398;2023-02-13T04:46:04;99568.25;;;-3.23;100.00
12146;BME280;6136;47.032;15.398;2023-02-13T04:48:32;99569.03;;;-3.26;100.00
12146;BME280;6136;47.032;15.398;2023-02-13T04:51:03;99569.78;;;-3.31;100.00
12146;BME280;6136;47.032;15.398;2023-02-13T04:53:31;99563.84;;;-3.27;100.00
12146;BME280;6136;47.032;15.398;2023-02-13T04:55:59;99568.72;;;-3.39;100.00
12146;BME280;6136;47.032;15.398;2023-02-13T04:58:27;99577.31;;;-3.40;100.00
12146;BME280;6136;47.032;15.398;2023-02-13T05:00:57;99573.69;;;-3.47;100.00
12146;BME280;6136;47.032;15.398;2023-02-13T05:03:26;99573.88;;;-3.39;100.00
12146;BME280;6136;47.032;15.398;2023-02-13T05:05:54;99571.25;;;-3.42;100.00
12146;BME280;6136;47.032;15.398;2023-02-13T05:08:22;99568.75;;;-3.38;100.00
12146;BME280;6136;47.032;15.398;2023-02-13T05:10:50;99574.56;;;-3.46;100.00
12146;BME280;6136;47.032;15.398;2023-02-13T05:13:18;99577.84;;;-3.54;100.00
12146;BME280;6136;47.032;15.398;2023-02-13T05:15:47;99569.16;;;-3.56;100.00
12146;BME280;6136;47.032;15.398;2023-02-13T05:18:17;99576.28;;;-3.47;100.00
12146;BME280;6136;47.032;15.398;2023-02-13T05:20:46;99581.59;;;-3.42;100.00
12146;BME280;6136;47.032;15.398;2023-02-13T05:23:34;99581.50;;;-3.45;100.00
12146;BME280;6136;47.032;15.398;2023-02-13T05:26:01;99556.97;;;-3.60;100.00
12146;BME280;6136;47.032;15.398;2023-02-13T05:28:29;99566.59;;;-3.54;100.00
12146;BME280;6136;47.032;15.398;2023-02-13T05:31:15;99565.63;;;-3.59;100.00
12146;BME280;6136;47.032;15.398;2023-02-13T05:33:45;99576.09;;;-3.55;100.00
12146;BME280;6136;47.032;15.398;2023-02-13T05:36:14;99565.66;;;-3.58;100.00
12146;BME280;6136;47.032;15.398;2023-02-13T05:38:43;99562.31;;;-3.54;100.00
12146;BME280;6136;47.032;15.398;2023-02-13T05:41:14;99569.34;;;-3.49;100.00
12146;BME280;6136;47.032;15.398;2023-02-13T05:43:42;99564.94;;;-3.52;100.00
12146;BME280;6136;47.032;15.398;2023-02-13T05:46:10;99566.75;;;-3.48;100.00
12146;BME280;6136;47.032;15.398;2023-02-13T05:48:38;99572.63;;;-3.55;100.00
12146;BME280;6136;47.032;15.398;2023-02-13T05:51:08;99568.06;;;-3.65;100.00
12146;BME280;6136;47.032;15.398;2023-02-13T05:53:36;99577.84;;;-3.54;100.00
12146;BME280;6136;47.032;15.398;2023-02-13T05:56:05;99567.63;;;-3.49;100.00
12146;BME280;6136;47.032;15.398;2023-02-13T05:58:33;99579.91;;;-3.40;100.00
12146;BME280;6136;47.032;15.398;2023-02-13T06:01:02;99577.25;;;-3.43;100.00
12146;BME280;6136;47.032;15.398;2023-02-13T06:03:31;99574.47;;;-3.51;100.00
12146;BME280;6136;47.032;15.398;2023-02-13T06:05:59;99574.50;;;-3.49;100.00
12146;BME280;6136;47.032;15.398;2023-02-13T06:08:29;99565.50;;;-3.64;100.00
12146;BME280;6136;47.032;15.398;2023-02-13T06:10:57;99569.34;;;-3.49;100.00
12146;BME280;6136;47.032;15.398;2023-02-13T06:13:25;99580.59;;;-3.49;100.00
12146;BME280;6136;47.032;15.398;2023-02-13T06:15:54;99579.72;;;-3.48;100.00
12146;BME280;6136;47.032;15.398;2023-02-13T06:18:22;99579.84;;;-3.43;100.00
12146;BME280;6136;47.032;15.398;2023-02-13T06:20:50;99579.91;;;-3.40;100.00
12146;BME280;6136;47.032;15.398;2023-02-13T06:23:18;99593.53;;;-3.49;100.00
12146;BME280;6136;47.032;15.398;2023-02-13T06:25:48;99590.25;;;-3.42;100.00
12146;BME280;6136;47.032;15.398;2023-02-13T06:28:16;99594.63;;;-3.39;100.00
12146;BME280;6136;47.032;15.398;2023-02-13T06:30:44;99586.16;;;-3.32;100.00
12146;BME280;6136;47.032;15.398;2023-02-13T06:33:13;99589.13;;;-3.17;100.00
12146;BME280;6136;47.032;15.398;2023-02-13T06:35:41;99589.38;;;-3.08;100.00
12146;BME280;6136;47.032;15.398;2023-02-13T06:38:09;99589.50;;;-3.02;100.00
12146;BME280;6136;47.032;15.398;2023-02-13T06:40:37;99590.19;;;-2.75;100.00
12146;BME280;6136;47.032;15.398;2023-02-13T06:43:07;99596.50;;;-2.62;100.00
12146;BME280;6136;47.032;15.398;2023-02-13T06:45:36;99602.97;;;-2.43;100.00
12146;BME280;6136;47.032;15.398;2023-02-13T06:48:04;99598.06;;;-2.31;100.00
12146;BME280;6136;47.032;15.398;2023-02-13T06:50:32;99602.84;;;-2.09;100.00
12146;BME280;6136;47.032;15.398;2023-02-13T06:53:01;99602.66;;;-1.74;100.00
12146;BME280;6136;47.032;15.398;2023-02-13T06:55:29;99604.75;;;-1.55;100.00
12146;BME280;6136;47.032;15.398;2023-02-13T06:57:57;99606.56;;;-1.51;100.00
12146;BME280;6136;47.032;15.398;2023-02-13T07:00:27;99598.22;;;-1.35;100.00
12146;BME280;6136;47.032;15.398;2023-02-13T07:03:00;99596.00;;;-1.12;100.00
12146;BME280;6136;47.032;15.398;2023-02-13T07:05:29;99607.00;;;-0.74;100.00
12146;BME280;6136;47.032;15.398;2023-02-13T07:07:57;99594.47;;;-0.41;100.00
12146;BME280;6136;47.032;15.398;2023-02-13T07:10:26;99590.44;;;-0.19;100.00
12146;BME280;6136;47.032;15.398;2023-02-13T07:12:54;99599.34;;;-0.02;100.00
12146;BME280;6136;47.032;15.398;2023-02-13T07:15:33;99597.09;;;0.30;100.00
12146;BME280;6136;47.032;15.398;2023-02-13T07:18:03;99601.75;;;0.60;100.00
12146;BME280;6136;47.032;15.398;2023-02-13T07:20:32;99596.81;;;0.88;100.00
12146;BME280;6136;47.032;15.398;2023-02-13T07:23:02;99601.28;;;1.02;100.00
12146;BME280;6136;47.032;15.398;2023-02-13T07:25:30;99599.75;;;1.29;100.00
12146;BME280;6136;47.032;15.398;2023-02-13T07:28:03;99585.19;;;1.67;100.00
12146;BME280;6136;47.032;15.398;2023-02-13T07:30:34;99582.72;;;1.94;100.00
12146;BME280;6136;47.032;15.398;2023-02-13T07:33:03;99580.19;;;2.19;100.00
12146;BME280;6136;47.032;15.398;2023-02-13T07:35:32;99568.91;;;2.32;100.00
12146;BME280;6136;47.032;15.398;2023-02-13T07:38:01;99576.78;;;2.53;98.69
12146;BME280;6136;47.032;15.398;2023-02-13T07:40:30;99578.59;;;2.77;98.04
12146;BME280;6136;47.032;15.398;2023-02-13T07:42:59;99582.09;;;3.02;96.26
12146;BME280;6136;47.032;15.398;2023-02-13T07:45:28;99573.34;;;3.29;95.20
12146;BME280;6136;47.032;15.398;2023-02-13T07:47:58;99570.72;;;3.47;93.20
12146;BME280;6136;47.032;15.398;2023-02-13T07:50:27;99570.69;;;3.55;93.06
12146;BME280;6136;47.032;15.398;2023-02-13T07:52:56;99570.63;;;3.85;91.83
12146;BME280;6136;47.032;15.398;2023-02-13T07:55:24;99576.56;;;4.25;89.38
12146;BME280;6136;47.032;15.398;2023-02-13T07:57:53;99572.84;;;4.64;86.80
12146;BME280;6136;47.032;15.398;2023-02-13T08:00:22;99579.63;;;4.94;84.80
12146;BME280;6136;47.032;15.398;2023-02-13T08:02:50;99578.59;;;5.12;82.36
12146;BME280;6136;47.032;15.398;2023-02-13T08:05:19;99578.44;;;5.33;80.01
12146;BME280;6136;47.032;15.398;2023-02-13T08:07:48;99569.56;;;5.43;80.38
12146;BME280;6136;47.032;15.398;2023-02-13T08:10:16;99569.41;;;5.60;79.01
12146;BME280;6136;47.032;15.398;2023-02-13T08:13:03;99564.72;;;5.86;77.28
12146;BME280;6136;47.032;15.398;2023-02-13T08:15:31;99556.91;;;5.78;77.38
12146;BME280;6136;47.032;15.398;2023-02-13T08:17:59;99560.59;;;5.64;78.40
12146;BME280;6136;47.032;15.398;2023-02-13T08:20:29;99548.28;;;5.67;78.72
12146;BME280;6136;47.032;15.398;2023-02-13T08:23:01;99552.56;;;5.77;78.32
12146;BME280;6136;47.032;15.398;2023-02-13T08:25:30;99546.47;;;5.72;79.00
12146;BME280;6136;47.032;15.398;2023-02-13T08:27:58;99548.94;;;6.56;74.20
12146;BME280;6136;47.032;15.398;2023-02-13T08:30:27;99548.34;;;6.96;72.33
12146;BME280;6136;47.032;15.398;2023-02-13T08:32:55;99541.06;;;7.10;71.26
12146;BME280;6136;47.032;15.398;2023-02-13T08:35:24;99544.22;;;7.30;72.42
12146;BME280;6136;47.032;15.398;2023-02-13T08:38:00;99540.59;;;7.37;69.72
12146;BME280;6136;47.032;15.398;2023-02-13T08:40:29;99537.44;;;7.65;68.63
12146;BME280;6136;47.032;15.398;2023-02-13T08:43:00;99541.97;;;8.01;67.13
12146;BME280;6136;47.032;15.398;2023-02-13T08:45:29;99541.63;;;8.19;67.68
12146;BME280;6136;47.032;15.398;2023-02-13T08:47:58;99531.69;;;8.71;64.42
12146;BME280;6136;47.032;15.398;2023-02-13T08:50:27;99542.69;;;8.89;64.45
12146;BME280;6136;47.032;15.398;2023-02-13T08:52:57;99539.50;;;9.46;62.16
12146;BME280;6136;47.032;15.398;2023-02-13T08:55:26;99522.53;;;9.55;60.98
12146;BME280;6136;47.032;15.398;2023-02-13T08:57:54;99523.81;;;9.40;59.67
12146;BME280;6136;47.032;15.398;2023-02-13T09:00:23;99526.53;;;9.69;59.82
12146;BME280;6136;47.032;15.398;2023-02-13T09:02:51;99528.22;;;9.72;59.16
12146;BME280;6136;47.032;15.398;2023-02-13T09:05:19;99525.56;;;10.03;57.61
12146;BME280;6136;47.032;15.398;2023-02-13T09:07:48;99532.53;;;10.07;57.75
12146;BME280;6136;47.032;15.398;2023-02-13T09:10:18;99528.69;;;10.48;56.55
12146;BME280;6136;47.032;15.398;2023-02-13T09:12:51;99542.28;;;10.65;56.69
12146;BME280;6136;47.032;15.398;2023-02-13T09:15:19;99540.66;;;10.89;55.78
12146;BME280;6136;47.032;15.398;2023-02-13T09:17:47;99545.22;;;10.84;55.17
12146;BME280;6136;47.032;15.398;2023-02-13T09:20:15;99549.56;;;10.86;54.81
12146;BME280;6136;47.032;15.398;2023-02-13T09:22:44;99541.88;;;11.58;53.08
12146;BME280;6136;47.032;15.398;2023-02-13T09:25:12;99550.47;;;11.40;53.10
12146;BME280;6136;47.032;15.398;2023-02-13T09:27:42;99544.94;;;11.19;54.40
12146;BME280;6136;47.032;15.398;2023-02-13T09:30:10;99555.44;;;11.49;52.49
12146;BME280;6136;47.032;15.398;2023-02-13T09:32:40;99546.66;;;11.48;52.89
12146;BME280;6136;47.032;15.398;2023-02-13T09:35:09;99550.31;;;11.95;51.43
12146;BME280;6136;47.032;15.398;2023-02-13T09:37:37;99549.06;;;12.05;50.56
12146;BME280;6136;47.032;15.398;2023-02-13T09:40:09;99553.22;;;12.36;49.80
12146;BME280;6136;47.032;15.398;2023-02-13T09:42:44;99553.09;;;12.62;48.71
12146;BME280;6136;47.032;15.398;2023-02-13T09:45:16;99552.72;;;12.50;49.23
12146;BME280;6136;47.032;15.398;2023-02-13T09:47:47;99549.84;;;12.31;49.68
12146;BME280;6136;47.032;15.398;2023-02-13T09:50:18;99566.03;;;12.25;50.20
12146;BME280;6136;47.032;15.398;2023-02-13T09:52:50;99552.47;;;12.56;49.53
12146;BME280;6136;47.032;15.398;2023-02-13T09:55:21;99554.56;;;12.93;48.80
12146;BME280;6136;47.032;15.398;2023-02-13T09:57:57;99553.53;;;13.18;47.47
12146;BME280;6136;47.032;15.398;2023-02-13T10:00:31;99547.47;;;13.15;47.94
12146;BME280;6136;47.032;15.398;2023-02-13T10:03:20;99550.06;;;13.58;46.19
12146;BME280;6136;47.032;15.398;2023-02-13T10:05:59;99547.94;;;14.07;45.54
12146;BME280;6136;47.032;15.398;2023-02-13T10:08:40;99546.88;;;13.71;46.97
12146;BME280;6136;47.032;15.398;2023-02-13T10:11:31;99549.38;;;13.94;46.31
12146;BME280;6136;47.032;15.398;2023-02-13T10:14:10;99535.69;;;14.22;44.77
12146;BME280;6136;47.032;15.398;2023-02-13T10:16:44;99545.25;;;15.20;42.42
12146;BME280;6136;47.032;15.398;2023-02-13T10:19:23;99537.34;;;15.35;42.26
12146;BME280;6136;47.032;15.398;2023-02-13T10:21:58;99535.78;;;15.31;42.67
12146;BME280;6136;47.032;15.398;2023-02-13T10:24:32;99526.81;;;16.01;40.44
12146;BME280;6136;47.032;15.398;2023-02-13T10:27:05;99528.34;;;15.72;41.31
12146;BME280;6136;47.032;15.398;2023-02-13T10:29:43;99520.25;;;15.57;40.99
12146;BME280;6136;47.032;15.398;2023-02-13T10:32:36;99528.59;;;15.68;41.04
12146;BME280;6136;47.032;15.398;2023-02-13T10:35:16;99517.00;;;15.50;41.70
12146;BME280;6136;47.032;15.398;2023-02-13T10:37:46;99519.88;;;15.64;41.12
12146;BME280;6136;47.032;15.398;2023-02-13T10:40:17;99528.34;;;15.89;40.97
12146;BME280;6136;47.032;15.398;2023-02-13T10:42:50;99523.00;;;15.72;41.65
12146;BME280;6136;47.032;15.398;2023-02-13T10:45:43;99514.31;;;16.35;39.18
12146;BME280;6136;47.032;15.398;2023-02-13T10:48:31;99512.16;;;17.35;37.81
12146;BME280;6136;47.032;15.398;2023-02-13T10:51:10;99512.09;;;16.10;39.32
12146;BME280;6136;47.032;15.398;2023-02-13T10:53:51;99508.19;;;17.27;37.98
12146;BME280;6136;47.032;15.398;2023-02-13T10:56:29;99506.69;;;16.91;38.48
12146;BME280;6136;47.032;15.398;2023-02-13T10:59:39;99511.19;;;16.26;39.22
12146;BME280;6136;47.032;15.398;2023-02-13T11:02:21;99516.25;;;15.82;40.72
12146;BME280;6136;47.032;15.398;2023-02-13T11:04:53;99519.44;;;16.06;39.72
12146;BME280;6136;47.032;15.398;2023-02-13T11:07:25;99505.53;;;16.48;38.17
12146;BME280;6136;47.032;15.398;2023-02-13T11:09:58;99504.78;;;16.78;38.06
12146;BME280;6136;47.032;15.398;2023-02-13T11:12:30;99498.50;;;16.94;38.31
12146;BME280;6136;47.032;15.398;2023-02-13T11:15:00;99487.59;;;18.01;35.85
12146;BME280;6136;47.032;15.398;2023-02-13T11:17:32;99483.31;;;17.84;35.80
12146;BME280;6136;47.032;15.398;2023-02-13T11:20:03;99479.47;;;17.59;36.40
12146;BME280;6136;47.032;15.398;2023-02-13T11:22:35;99490.41;;;17.56;36.58
12146;BME280;6136;47.032;15.398;2023-02-13T11:25:06;99478.56;;;17.14;36.73
12146;BME280;6136;47.032;15.398;2023-02-13T11:27:44;99481.75;;;17.21;36.80
12146;BME280;6136;47.032;15.398;2023-02-13T11:30:31;99472.91;;;17.64;36.10
12146;BME280;6136;47.032;15.398;2023-02-13T11:33:04;99470.94;;;17.82;37.11
12146;BME280;6136;47.032;15.398;2023-02-13T11:35:34;99458.50;;;17.51;37.34
12146;BME280;6136;47.032;15.398;2023-02-13T11:38:11;99471.16;;;18.07;35.41
12146;BME280;6136;47.032;15.398;2023-02-13T11:40:41;99464.22;;;17.75;35.71
12146;BME280;6136;47.032;15.398;2023-02-13T11:43:18;99462.66;;;18.97;34.09
12146;BME280;6136;47.032;15.398;2023-02-13T11:46:03;99458.84;;;18.32;34.47
12146;BME280;6136;47.032;15.398;2023-02-13T11:48:34;99459.13;;;17.26;36.28
12146;BME280;6136;47.032;15.398;2023-02-13T11:51:03;99465.19;;;18.45;34.47
12146;BME280;6136;47.032;15.398;2023-02-13T11:53:35;99464.84;;;17.34;36.80
12146;BME280;6136;47.032;15.398;2023-02-13T11:56:10;99453.19;;;17.79;36.17
12146;BME280;6136;47.032;15.398;2023-02-13T11:58:40;99456.38;;;18.57;34.52
12146;BME280;6136;47.032;15.398;2023-02-13T12:01:24;99453.88;;;17.83;36.00
12146;BME280;6136;47.032;15.398;2023-02-13T12:04:02;99447.50;;;18.69;34.33
12146;BME280;6136;47.032;15.398;2023-02-13T12:06:32;99449.31;;;18.54;34.56
12146;BME280;6136;47.032;15.398;2023-02-13T12:09:11;99442.78;;;17.75;35.48
12146;BME280;6136;47.032;15.398;2023-02-13T12:11:44;99445.88;;;19.98;32.25
12146;BME280;6136;47.032;15.398;2023-02-13T12:14:18;99434.78;;;20.15;31.95
12146;BME280;6136;47.032;15.398;2023-02-13T12:16:49;99438.69;;;18.67;34.27
12146;BME280;6136;47.032;15.398;2023-02-13T12:19:24;99432.13;;;17.73;35.60
12146;BME280;6136;47.032;15.398;2023-02-13T12:25:31;99435.50;;;17.91;35.76
12146;BME280;6136;47.032;15.398;2023-02-13T12:28:10;99423.63;;;17.07;37.00
12146;BME280;6136;47.032;15.398;2023-02-13T12:33:49;99428.59;;;17.73;36.04
12146;BME280;6136;47.032;15.398;2023-02-13T12:36:24;99423.38;;;17.56;36.45
12146;BME280;6136;47.032;15.398;2023-02-13T12:39:05;99408.97;;;16.98;37.28
12146;BME280;6136;47.032;15.398;2023-02-13T12:41:45;99422.63;;;16.31;37.99
12146;BME280;6136;47.032;15.398;2023-02-13T12:44:39;99415.75;;;16.58;38.31
12146;BME280;6136;47.032;15.398;2023-02-13T12:47:15;99406.00;;;17.77;35.88
12146;BME280;6136;47.032;15.398;2023-02-13T12:50:12;99402.47;;;16.73;37.64
12146;BME280;6136;47.032;15.398;2023-02-13T12:53:01;99399.31;;;17.40;37.02
12146;BME280;6136;47.032;15.398;2023-02-13T12:55:44;99398.69;;;17.65;36.11
12146;BME280;6136;47.032;15.398;2023-02-13T12:58:33;99402.75;;;18.00;35.40
12146;BME280;6136;47.032;15.398;2023-02-13T13:01:13;99391.59;;;17.64;36.41
12146;BME280;6136;47.032;15.398;2023-02-13T13:03:53;99391.09;;;17.57;35.55
12146;BME280;6136;47.032;15.398;2023-02-13T13:06:38;99388.19;;;17.18;36.38
12146;BME280;6136;47.032;15.398;2023-02-13T13:09:24;99382.47;;;18.23;35.15
12146;BME280;6136;47.032;15.398;2023-02-13T13:12:08;99385.78;;;17.86;36.58
12146;BME280;6136;47.032;15.398;2023-02-13T13:14:47;99388.94;;;17.78;35.99
12146;BME280;6136;47.032;15.398;2023-02-13T13:17:28;99382.50;;;18.50;34.14
12146;BME280;6136;47.032;15.398;2023-02-13T13:20:20;99394.06;;;17.53;35.78
12146;BME280;6136;47.032;15.398;2023-02-13T13:22:57;99389.38;;;17.12;36.22
12146;BME280;6136;47.032;15.398;2023-02-13T13:25:35;99391.53;;;17.35;36.17
12146;BME280;6136;47.032;15.398;2023-02-13T13:28:11;99385.81;;;17.41;36.10
12146;BME280;6136;47.032;15.398;2023-02-13T13:30:42;99389.34;;;16.21;38.38
12146;BME280;6136;47.032;15.398;2023-02-13T13:33:14;99394.81;;;15.86;38.92
12146;BME280;6136;47.032;15.398;2023-02-13T13:35:49;99388.91;;;16.44;37.86
12146;BME280;6136;47.032;15.398;2023-02-13T13:38:24;99387.69;;;16.34;38.68